sensor_id;sensor_type;location;lat;lon;timestamp;P1;P2;P0
73687;PMS7003;62257;48.376;-4.378;2023-02-28T00:01:02;3.75;2.00;1.75
73687;PMS7003;62257;48.376;-4.378;2023-02-28T00:03:27;2.50;2.00;2.00
73687;PMS7003;62257;48.376;-4.378;2023-02-28T00:05:52;3.67;2.00;1.67
73687;PMS7003;62257;48.376;-4.378;2023-02-28T00:08:18;9.33;2.00;2.00
73687;PMS7003;62257;48.376;-4.378;2023-02-28T00:10:43;5.75;2.00;2.00
73687;PMS7003;62257;48.376;-4.378;2023-02-28T00:13:08;1.67;0.00;0.00
73687;PMS7003;62257;48.376;-4.378;2023-02-28T00:15:34;4.50;3.00;2.00
73687;PMS7003;62257;48.376;-4.378;2023-02-28T00:18:00;3.50;1.75;1.50
73687;PMS7003;62257;48.376;-4.378;2023-02-28T00:20:25;4.00;3.25;2.00
73687;PMS7003;62257;48.376;-4.378;2023-02-28T00:22:51;1.00;0.25;0.25
73687;PMS7003;62257;48.376;-4.378;2023-02-28T00:25:18;2.00;1.00;0.00
73687;PMS7003;62257;48.376;-4.378;2023-02-28T00:27:44;0.50;0.50;0.00
73687;PMS7003;62257;48.376;-4.378;2023-02-28T00:30:14;1.00;1.00;1.00
73687;PMS7003;62257;48.376;-4.378;2023-02-28T00:32:40;1.00;1.00;1.00
73687;PMS7003;62257;48.376;-4.378;2023-02-28T00:35:05;1.50;1.00;1.00
73687;PMS7003;62257;48.376;-4.378;2023-02-28T00:37:31;1.75;1.75;1.75
73687;PMS7003;62257;48.376;-4.378;2023-02-28T00:39:56;3.25;3.25;2.00
73687;PMS7003;62257;48.376;-4.378;2023-02-28T00:42:22;6.75;3.25;2.00
73687;PMS7003;62257;48.376;-4.378;2023-02-28T00:44:47;4.50;2.50;2.00
73687;PMS7003;62257;48.376;-4.378;2023-02-28T00:47:12;4.00;2.00;2.00
73687;PMS7003;62257;48.376;-4.378;2023-02-28T00:49:37;6.50;2.25;2.00
73687;PMS7003;62257;48.376;-4.378;2023-02-28T00:52:03;2.67;2.00;2.00
73687;PMS7003;62257;48.376;-4.378;2023-02-28T00:54:28;4.00;4.00;2.00
73687;PMS7003;62257;48.376;-4.378;2023-02-28T00:56:53;6.75;3.25;3.00
73687;PMS7003;62257;48.376;-4.378;2023-02-28T00:59:18;3.00;1.00;1.00
73687;PMS7003;62257;48.376;-4.378;2023-02-28T01:01:45;2.00;2.00;2.00
73687;PMS7003;62257;48.376;-4.378;2023-02-28T01:04:10;9.25;3.50;2.25
73687;PMS7003;62257;48.376;-4.378;2023-02-28T01:06:35;5.50;4.00;4.00
73687;PMS7003;62257;48.376;-4.378;2023-02-28T01:09:01;6.00;2.00;1.25
73687;PMS7003;62257;48.376;-4.378;2023-02-28T01:11:27;4.75;4.00;4.00
73687;PMS7003;62257;48.376;-4.378;2023-02-28T01:13:52;1.00;1.00;0.33
73687;PMS7003;62257;48.376;-4.378;2023-02-28T01:16:17;2.67;2.67;2.67
73687;PMS7003;62257;48.376;-4.378;2023-02-28T01:18:43;2.00;2.00;2.00
73687;PMS7003;62257;48.376;-4.378;2023-02-28T01:21:09;3.25;2.75;2.00
73687;PMS7003;62257;48.376;-4.378;2023-02-28T01:23:35;5.00;1.50;1.00
73687;PMS7003;62257;48.376;-4.378;2023-02-28T01:26:07;2.00;2.00;1.50
73687;PMS7003;62257;48.376;-4.378;2023-02-28T01:28:32;3.50;2.50;2.50
73687;PMS7003;62257;48.376;-4.378;2023-02-28T01:30:58;8.25;2.50;2.00
73687;PMS7003;62257;48.376;-4.378;2023-02-28T01:33:23;7.25;5.50;4.00
73687;PMS7003;62257;48.376;-4.378;2023-02-28T01:35:48;3.00;2.33;2.00
73687;PMS7003;62257;48.376;-4.378;2023-02-28T01:38:13;4.00;3.25;2.00
73687;PMS7003;62257;48.376;-4.378;2023-02-28T01:40:39;6.00;5.50;3.25
73687;PMS7003;62257;48.376;-4.378;2023-02-28T01:43:07;5.67;4.00;2.67
73687;PMS7003;62257;48.376;-4.378;2023-02-28T01:45:40;6.75;6.00;3.25
73687;PMS7003;62257;48.376;-4.378;2023-02-28T01:48:05;8.75;6.00;5.00
73687;PMS7003;62257;48.376;-4.378;2023-02-28T01:50:34;6.00;5.00;4.00
73687;PMS7003;62257;48.376;-4.378;2023-02-28T01:53:01;7.50;3.25;3.25
73687;PMS7003;62257;48.376;-4.378;2023-02-28T01:55:29;9.25;6.00;5.25
73687;PMS7003;62257;48.376;-4.378;2023-02-28T01:57:56;4.00;3.00;3.00
73687;PMS7003;62257;48.376;-4.378;2023-02-28T02:00:23;7.25;3.25;3.25
73687;PMS7003;62257;48.376;-4.378;2023-02-28T02:02:49;5.00;3.25;2.00
73687;PMS7003;62257;48.376;-4.378;2023-02-28T02:05:20;7.50;2.00;2.00
73687;PMS7003;62257;48.376;-4.378;2023-02-28T02:07:46;6.75;3.25;2.00
73687;PMS7003;62257;48.376;-4.378;2023-02-28T02:17:40;6.00;3.00;3.00
73687;PMS7003;62257;48.376;-4.378;2023-02-28T02:22:56;5.00;3.00;2.00
73687;PMS7003;62257;48.376;-4.378;2023-02-28T02:25:33;5.25;5.25;4.00
73687;PMS7003;62257;48.376;-4.378;2023-02-28T02:33:10;3.00;3.00;3.00
73687;PMS7003;62257;48.376;-4.378;2023-02-28T02:40:43;2.75;1.75;1.50
73687;PMS7003;62257;48.376;-4.378;2023-02-28T02:43:13;5.50;4.50;3.00
73687;PMS7003;62257;48.376;-4.378;2023-02-28T02:45:48;5.25;5.25;3.00
73687;PMS7003;62257;48.376;-4.378;2023-02-28T02:48:16;3.00;3.00;3.00
73687;PMS7003;62257;48.376;-4.378;2023-02-28T02:50:44;6.00;3.50;3.00
73687;PMS7003;62257;48.376;-4.378;2023-02-28T02:53:11;7.75;5.50;5.00
73687;PMS7003;62257;48.376;-4.378;2023-02-28T02:55:39;5.00;3.00;3.00
73687;PMS7003;62257;48.376;-4.378;2023-02-28T02:58:07;9.00;5.00;3.00
73687;PMS7003;62257;48.376;-4.378;2023-02-28T03:00:41;4.00;4.00;4.00
73687;PMS7003;62257;48.376;-4.378;2023-02-28T03:03:08;2.50;2.00;1.25
73687;PMS7003;62257;48.376;-4.378;2023-02-28T03:05:35;3.50;3.50;2.00
73687;PMS7003;62257;48.376;-4.378;2023-02-28T03:08:04;5.75;3.00;2.25
73687;PMS7003;62257;48.376;-4.378;2023-02-28T03:13:23;3.00;2.50;2.00
73687;PMS7003;62257;48.376;-4.378;2023-02-28T03:15:51;5.00;5.00;4.00
73687;PMS7003;62257;48.376;-4.378;2023-02-28T03:18:32;6.25;5.00;3.00
73687;PMS7003;62257;48.376;-4.378;2023-02-28T03:21:18;6.50;5.00;2.25
73687;PMS7003;62257;48.376;-4.378;2023-02-28T03:23:50;7.00;5.75;5.00
73687;PMS7003;62257;48.376;-4.378;2023-02-28T03:26:21;6.75;3.00;2.00
73687;PMS7003;62257;48.376;-4.378;2023-02-28T03:31:25;6.25;3.00;2.50
73687;PMS7003;62257;48.376;-4.378;2023-02-28T03:33:58;5.00;5.00;3.00
73687;PMS7003;62257;48.376;-4.378;2023-02-28T03:36:26;3.00;3.00;2.25
73687;PMS7003;62257;48.376;-4.378;2023-02-28T03:38:54;5.00;5.00;5.00
73687;PMS7003;62257;48.376;-4.378;2023-02-28T03:41:23;7.00;5.75;3.00
73687;PMS7003;62257;48.376;-4.378;2023-02-28T03:43:55;5.75;5.25;3.00
73687;PMS7003;62257;48.376;-4.378;2023-02-28T03:46:23;5.50;5.50;3.00
73687;PMS7003;62257;48.376;-4.378;2023-02-28T03:49:03;5.00;5.00;3.00
73687;PMS7003;62257;48.376;-4.378;2023-02-28T03:51:30;9.75;4.50;3.00
73687;PMS7003;62257;48.376;-4.378;2023-02-28T03:53:58;5.00;4.50;3.00
73687;PMS7003;62257;48.376;-4.378;2023-02-28T03:56:27;3.00;2.25;2.00
73687;PMS7003;62257;48.376;-4.378;2023-02-28T04:01:53;3.00;3.00;3.00
73687;PMS7003;62257;48.376;-4.378;2023-02-28T04:04:20;2.00;2.00;2.00
73687;PMS7003;62257;48.376;-4.378;2023-02-28T04:06:45;6.00;3.00;3.00
73687;PMS7003;62257;48.376;-4.378;2023-02-28T04:09:14;3.00;2.00;1.00
73687;PMS7003;62257;48.376;-4.378;2023-02-28T04:11:44;3.00;3.00;3.00
73687;PMS7003;62257;48.376;-4.378;2023-02-28T04:14:10;2.00;2.00;2.00
73687;PMS7003;62257;48.376;-4.378;2023-02-28T04:16:36;5.00;2.50;2.00
73687;PMS7003;62257;48.376;-4.378;2023-02-28T04:19:02;3.25;3.25;2.75
73687;PMS7003;62257;48.376;-4.378;2023-02-28T04:21:30;7.50;4.50;3.00
73687;PMS7003;62257;48.376;-4.378;2023-02-28T04:23:56;9.25;5.25;4.50
73687;PMS7003;62257;48.376;-4.378;2023-02-28T04:26:25;2.00;2.00;2.00
73687;PMS7003;62257;48.376;-4.378;2023-02-28T04:28:50;5.00;2.50;2.25
73687;PMS7003;62257;48.376;-4.378;2023-02-28T04:31:15;6.33;4.33;3.67
73687;PMS7003;62257;48.376;-4.378;2023-02-28T04:33:41;5.00;3.00;2.00
73687;PMS7003;62257;48.376;-4.378;2023-02-28T04:36:07;5.00;5.00;3.00
73687;PMS7003;62257;48.376;-4.378;2023-02-28T04:38:34;3.00;2.00;2.00
73687;PMS7003;62257;48.376;-4.378;2023-02-28T04:40:59;3.00;2.00;1.75
73687;PMS7003;62257;48.376;-4.378;2023-02-28T04:43:25;1.00;1.00;1.00
73687;PMS7003;62257;48.376;-4.378;2023-02-28T04:45:51;5.25;3.00;3.00
73687;PMS7003;62257;48.376;-4.378;2023-02-28T04:48:16;4.00;4.00;2.50
73687;PMS7003;62257;48.376;-4.378;2023-02-28T04:50:41;7.00;6.00;5.00
73687;PMS7003;62257;48.376;-4.378;2023-02-28T04:53:06;6.00;3.00;3.00
73687;PMS7003;62257;48.376;-4.378;2023-02-28T04:55:32;6.67;6.67;5.00
73687;PMS7003;62257;48.376;-4.378;2023-02-28T04:57:57;9.00;6.00;5.00
73687;PMS7003;62257;48.376;-4.378;2023-02-28T05:00:22;7.50;5.25;5.00
73687;PMS7003;62257;48.376;-4.378;2023-02-28T05:02:48;6.00;5.50;3.25
73687;PMS7003;62257;48.376;-4.378;2023-02-28T05:05:13;7.33;3.33;3.33
73687;PMS7003;62257;48.376;-4.378;2023-02-28T05:07:43;5.50;2.50;2.00
73687;PMS7003;62257;48.376;-4.378;2023-02-28T05:10:08;3.00;3.00;2.00
73687;PMS7003;62257;48.376;-4.378;2023-02-28T05:12:34;5.50;5.00;4.75
73687;PMS7003;62257;48.376;-4.378;2023-02-28T05:14:59;6.00;4.00;3.00
73687;PMS7003;62257;48.376;-4.378;2023-02-28T05:17:26;10.75;5.00;5.00
73687;PMS7003;62257;48.376;-4.378;2023-02-28T05:19:51;6.00;5.00;4.00
73687;PMS7003;62257;48.376;-4.378;2023-02-28T05:22:16;3.00;3.00;2.50
73687;PMS7003;62257;48.376;-4.378;2023-02-28T05:24:41;5.75;4.50;3.25
73687;PMS7003;62257;48.376;-4.378;2023-02-28T05:27:07;6.25;3.25;2.75
73687;PMS7003;62257;48.376;-4.378;2023-02-28T05:29:32;4.00;4.00;3.25
73687;PMS7003;62257;48.376;-4.378;2023-02-28T05:31:59;6.00;6.00;5.00
73687;PMS7003;62257;48.376;-4.378;2023-02-28T05:34:24;6.67;5.67;5.00
73687;PMS7003;62257;48.376;-4.378;2023-02-28T05:36:49;8.33;5.00;4.67
73687;PMS7003;62257;48.376;-4.378;2023-02-28T05:39:14;8.75;6.00;4.00
73687;PMS7003;62257;48.376;-4.378;2023-02-28T05:41:42;8.50;5.00;3.00
73687;PMS7003;62257;48.376;-4.378;2023-02-28T05:44:08;7.25;5.00;3.50
73687;PMS7003;62257;48.376;-4.378;2023-02-28T05:46:34;6.50;6.00;3.50
73687;PMS7003;62257;48.376;-4.378;2023-02-28T05:48:59;8.50;4.50;3.00
73687;PMS7003;62257;48.376;-4.378;2023-02-28T05:51:25;7.75;6.25;5.00
73687;PMS7003;62257;48.376;-4.378;2023-02-28T05:53:51;8.25;6.00;3.50
73687;PMS7003;62257;48.376;-4.378;2023-02-28T05:56:16;10.25;8.00;6.00
73687;PMS7003;62257;48.376;-4.378;2023-02-28T05:58:41;5.00;5.00;5.00
73687;PMS7003;62257;48.376;-4.378;2023-02-28T06:04:06;5.75;5.25;4.50
73687;PMS7003;62257;48.376;-4.378;2023-02-28T06:06:32;5.75;5.00;4.75
73687;PMS7003;62257;48.376;-4.378;2023-02-28T06:08:59;8.50;8.50;6.00
73687;PMS7003;62257;48.376;-4.378;2023-02-28T06:11:25;5.00;5.00;3.25
73687;PMS7003;62257;48.376;-4.378;2023-02-28T06:13:55;6.00;6.00;5.00
73687;PMS7003;62257;48.376;-4.378;2023-02-28T06:16:21;6.25;6.25;5.00
73687;PMS7003;62257;48.376;-4.378;2023-02-28T06:18:46;10.00;7.00;6.00
73687;PMS7003;62257;48.376;-4.378;2023-02-28T06:21:12;10.00;10.00;8.33
73687;PMS7003;62257;48.376;-4.378;2023-02-28T06:23:37;9.75;6.50;5.50
73687;PMS7003;62257;48.376;-4.378;2023-02-28T06:26:02;9.00;7.00;6.00
73687;PMS7003;62257;48.376;-4.378;2023-02-28T06:28:28;8.50;6.50;5.25
73687;PMS7003;62257;48.376;-4.378;2023-02-28T06:30:53;6.00;5.50;5.00
73687;PMS7003;62257;48.376;-4.378;2023-02-28T06:33:18;9.75;7.75;5.75
73687;PMS7003;62257;48.376;-4.378;2023-02-28T06:35:44;5.50;5.25;5.00
73687;PMS7003;62257;48.376;-4.378;2023-02-28T06:38:09;8.50;8.50;7.00
73687;PMS7003;62257;48.376;-4.378;2023-02-28T06:40:35;14.75;14.50;10.00
73687;PMS7003;62257;48.376;-4.378;2023-02-28T06:43:01;16.00;10.25;6.75
73687;PMS7003;62257;48.376;-4.378;2023-02-28T06:45:26;15.25;10.50;9.00
73687;PMS7003;62257;48.376;-4.378;2023-02-28T06:47:51;10.00;10.00;7.33
73687;PMS7003;62257;48.376;-4.378;2023-02-28T06:50:17;12.00;11.50;9.00
73687;PMS7003;62257;48.376;-4.378;2023-02-28T06:52:45;10.25;10.25;7.00
73687;PMS7003;62257;48.376;-4.378;2023-02-28T06:55:10;8.50;8.50;5.75
73687;PMS7003;62257;48.376;-4.378;2023-02-28T06:57:36;10.00;9.25;6.25
73687;PMS7003;62257;48.376;-4.378;2023-02-28T07:00:06;10.00;9.75;8.00
73687;PMS7003;62257;48.376;-4.378;2023-02-28T07:02:32;8.50;7.00;6.00
73687;PMS7003;62257;48.376;-4.378;2023-02-28T07:04:57;10.00;6.75;3.50
73687;PMS7003;62257;48.376;-4.378;2023-02-28T07:07:23;9.50;8.75;6.00
73687;PMS7003;62257;48.376;-4.378;2023-02-28T07:09:48;15.00;8.50;7.25
73687;PMS7003;62257;48.376;-4.378;2023-02-28T07:12:13;15.25;11.00;9.00
73687;PMS7003;62257;48.376;-4.378;2023-02-28T07:14:38;11.25;10.00;7.75
73687;PMS7003;62257;48.376;-4.378;2023-02-28T07:17:04;11.67;10.33;6.33
73687;PMS7003;62257;48.376;-4.378;2023-02-28T07:19:31;13.75;11.50;9.00
73687;PMS7003;62257;48.376;-4.378;2023-02-28T07:21:56;17.00;10.00;7.00
73687;PMS7003;62257;48.376;-4.378;2023-02-28T07:24:22;15.33;14.67;11.00
73687;PMS7003;62257;48.376;-4.378;2023-02-28T07:26:50;19.75;14.50;10.75
73687;PMS7003;62257;48.376;-4.378;2023-02-28T07:29:15;15.00;15.00;11.00
73687;PMS7003;62257;48.376;-4.378;2023-02-28T07:31:41;24.75;19.00;13.75
73687;PMS7003;62257;48.376;-4.378;2023-02-28T07:34:06;27.00;22.00;15.00
73687;PMS7003;62257;48.376;-4.378;2023-02-28T07:36:31;26.50;24.75;21.00
73687;PMS7003;62257;48.376;-4.378;2023-02-28T07:38:57;35.25;28.50;18.50
73687;PMS7003;62257;48.376;-4.378;2023-02-28T07:41:23;25.25;21.75;13.75
73687;PMS7003;62257;48.376;-4.378;2023-02-28T07:43:53;29.25;22.00;15.00
73687;PMS7003;62257;48.376;-4.378;2023-02-28T07:46:18;28.50;22.50;15.25
73687;PMS7003;62257;48.376;-4.378;2023-02-28T07:48:46;30.75;27.00;17.50
73687;PMS7003;62257;48.376;-4.378;2023-02-28T07:51:11;22.50;20.00;16.75
73687;PMS7003;62257;48.376;-4.378;2023-02-28T07:53:37;25.00;19.00;14.75
73687;PMS7003;62257;48.376;-4.378;2023-02-28T07:56:02;29.50;24.75;18.50
73687;PMS7003;62257;48.376;-4.378;2023-02-28T07:58:28;27.75;23.25;16.75
73687;PMS7003;62257;48.376;-4.378;2023-02-28T08:00:54;25.50;24.50;18.50
73687;PMS7003;62257;48.376;-4.378;2023-02-28T08:03:19;26.50;24.00;17.75
73687;PMS7003;62257;48.376;-4.378;2023-02-28T08:05:45;25.00;21.50;17.00
73687;PMS7003;62257;48.376;-4.378;2023-02-28T08:08:10;29.50;24.50;19.00
73687;PMS7003;62257;48.376;-4.378;2023-02-28T08:10:36;28.33;23.33;15.00
73687;PMS7003;62257;48.376;-4.378;2023-02-28T08:13:01;23.50;21.00;15.00
73687;PMS7003;62257;48.376;-4.378;2023-02-28T08:15:27;26.25;21.25;15.75
73687;PMS7003;62257;48.376;-4.378;2023-02-28T08:17:52;30.33;24.33;16.00
73687;PMS7003;62257;48.376;-4.378;2023-02-28T08:20:17;29.25;24.50;16.75
73687;PMS7003;62257;48.376;-4.378;2023-02-28T08:22:42;22.25;19.50;15.25
73687;PMS7003;62257;48.376;-4.378;2023-02-28T08:25:08;26.00;21.00;15.33
73687;PMS7003;62257;48.376;-4.378;2023-02-28T08:27:33;21.50;21.50;14.75
73687;PMS7003;62257;48.376;-4.378;2023-02-28T08:29:59;29.75;24.00;15.50
73687;PMS7003;62257;48.376;-4.378;2023-02-28T08:32:24;21.67;16.00;11.67
73687;PMS7003;62257;48.376;-4.378;2023-02-28T08:34:49;24.75;22.50;15.50
73687;PMS7003;62257;48.376;-4.378;2023-02-28T08:37:14;25.25;21.25;14.75
73687;PMS7003;62257;48.376;-4.378;2023-02-28T08:39:40;22.33;20.67;14.33
73687;PMS7003;62257;48.376;-4.378;2023-02-28T08:42:05;16.75;16.00;11.50
73687;PMS7003;62257;48.376;-4.378;2023-02-28T08:44:30;31.75;27.00;18.25
73687;PMS7003;62257;48.376;-4.378;2023-02-28T08:46:55;24.50;21.50;14.75
73687;PMS7003;62257;48.376;-4.378;2023-02-28T08:49:20;25.50;20.75;15.25
73687;PMS7003;62257;48.376;-4.378;2023-02-28T08:51:46;22.75;22.50;16.25
73687;PMS7003;62257;48.376;-4.378;2023-02-28T08:54:11;25.50;20.00;14.00
73687;PMS7003;62257;48.376;-4.378;2023-02-28T08:56:44;31.50;24.75;15.00
73687;PMS7003;62257;48.376;-4.378;2023-02-28T08:59:09;31.25;27.50;19.50
73687;PMS7003;62257;48.376;-4.378;2023-02-28T09:01:35;29.00;26.50;17.00
73687;PMS7003;62257;48.376;-4.378;2023-02-28T09:04:01;28.25;24.75;15.50
73687;PMS7003;62257;48.376;-4.378;2023-02-28T09:06:27;36.25;30.75;21.25
73687;PMS7003;62257;48.376;-4.378;2023-02-28T09:08:52;24.00;22.00;15.25
73687;PMS7003;62257;48.376;-4.378;2023-02-28T09:11:18;27.00;26.75;18.75
73687;PMS7003;62257;48.376;-4.378;2023-02-28T09:13:44;29.75;25.25;18.00
73687;PMS7003;62257;48.376;-4.378;2023-02-28T09:16:10;15.25;12.75;8.00
73687;PMS7003;62257;48.376;-4.378;2023-02-28T09:18:36;29.50;24.75;17.00
73687;PMS7003;62257;48.376;-4.378;2023-02-28T09:21:05;32.75;27.00;19.50
73687;PMS7003;62257;48.376;-4.378;2023-02-28T09:23:31;28.75;27.00;18.50
73687;PMS7003;62257;48.376;-4.378;2023-02-28T09:25:56;26.00;24.75;16.25
73687;PMS7003;62257;48.376;-4.378;2023-02-28T09:28:22;22.25;18.75;14.25
73687;PMS7003;62257;48.376;-4.378;2023-02-28T09:30:48;33.00;28.00;17.75
73687;PMS7003;62257;48.376;-4.378;2023-02-28T09:33:14;27.00;22.50;14.50
73687;PMS7003;62257;48.376;-4.378;2023-02-28T09:35:40;28.25;27.50;20.75
73687;PMS7003;62257;48.376;-4.378;2023-02-28T09:38:05;26.25;22.50;16.75
73687;PMS7003;62257;48.376;-4.378;2023-02-28T09:40:34;29.75;25.50;18.00
73687;PMS7003;62257;48.376;-4.378;2023-02-28T09:43:00;27.00;21.25;15.00
73687;PMS7003;62257;48.376;-4.378;2023-02-28T09:45:33;28.75;24.50;17.00
73687;PMS7003;62257;48.376;-4.378;2023-02-28T09:48:22;27.00;24.25;18.50
73687;PMS7003;62257;48.376;-4.378;2023-02-28T09:50:52;24.25;23.00;18.50
73687;PMS7003;62257;48.376;-4.378;2023-02-28T09:55:47;20.00;19.67;13.00
73687;PMS7003;62257;48.376;-4.378;2023-02-28T09:58:26;21.25;21.25;17.75
73687;PMS7003;62257;48.376;-4.378;2023-02-28T10:01:09;14.75;13.25;12.25
73687;PMS7003;62257;48.376;-4.378;2023-02-28T10:03:40;20.75;16.50;13.00
73687;PMS7003;62257;48.376;-4.378;2023-02-28T10:08:36;21.75;17.50;12.25
73687;PMS7003;62257;48.376;-4.378;2023-02-28T10:11:07;24.25;19.00;13.75
73687;PMS7003;62257;48.376;-4.378;2023-02-28T10:13:35;18.75;17.00;12.75
73687;PMS7003;62257;48.376;-4.378;2023-02-28T10:16:02;18.50;15.00;13.00
73687;PMS7003;62257;48.376;-4.378;2023-02-28T10:18:32;23.00;20.25;17.25
73687;PMS7003;62257;48.376;-4.378;2023-02-28T10:21:00;18.75;16.00;10.50
73687;PMS7003;62257;48.376;-4.378;2023-02-28T10:23:27;18.75;17.00;13.50
73687;PMS7003;62257;48.376;-4.378;2023-02-28T10:25:55;23.75;20.00;15.50
73687;PMS7003;62257;48.376;-4.378;2023-02-28T10:28:21;18.25;14.00;9.00
73687;PMS7003;62257;48.376;-4.378;2023-02-28T10:30:48;22.00;18.25;13.00
73687;PMS7003;62257;48.376;-4.378;2023-02-28T10:33:18;24.00;21.50;16.25
73687;PMS7003;62257;48.376;-4.378;2023-02-28T10:35:45;18.25;14.25;12.00
73687;PMS7003;62257;48.376;-4.378;2023-02-28T10:38:14;19.75;17.25;13.75
73687;PMS7003;62257;48.376;-4.378;2023-02-28T10:40:40;19.50;18.00;13.75
73687;PMS7003;62257;48.376;-4.378;2023-02-28T10:45:40;21.50;20.25;14.25
73687;PMS7003;62257;48.376;-4.378;2023-02-28T10:50:44;25.33;20.67;13.67
73687;PMS7003;62257;48.376;-4.378;2023-02-28T10:55:35;16.33;16.33;13.33
73687;PMS7003;62257;48.376;-4.378;2023-02-28T10:58:00;33.25;27.25;20.50
73687;PMS7003;62257;48.376;-4.378;2023-02-28T11:00:26;20.00;18.00;14.00
73687;PMS7003;62257;48.376;-4.378;2023-02-28T11:02:56;24.25;23.00;15.75
73687;PMS7003;62257;48.376;-4.378;2023-02-28T11:05:32;22.50;19.25;14.25
73687;PMS7003;62257;48.376;-4.378;2023-02-28T11:08:02;20.50;16.50;13.00
73687;PMS7003;62257;48.376;-4.378;2023-02-28T11:10:29;23.00;19.25;13.75
73687;PMS7003;62257;48.376;-4.378;2023-02-28T11:12:57;14.75;14.75;9.25
73687;PMS7003;62257;48.376;-4.378;2023-02-28T11:15:26;25.50;22.25;17.00
73687;PMS7003;62257;48.376;-4.378;2023-02-28T11:20:23;22.00;18.00;12.25
73687;PMS7003;62257;48.376;-4.378;2023-02-28T11:22:50;26.00;19.00;14.00
73687;PMS7003;62257;48.376;-4.378;2023-02-28T11:25:19;24.75;21.25;15.25
73687;PMS7003;62257;48.376;-4.378;2023-02-28T11:27:49;18.50;18.00;13.25
73687;PMS7003;62257;48.376;-4.378;2023-02-28T11:32:50;19.25;16.00;12.25
73687;PMS7003;62257;48.376;-4.378;2023-02-28T11:35:21;17.50;16.75;11.25
73687;PMS7003;62257;48.376;-4.378;2023-02-28T11:37:48;18.50;17.25;13.50
73687;PMS7003;62257;48.376;-4.378;2023-02-28T11:40:14;12.25;11.25;7.25
73687;PMS7003;62257;48.376;-4.378;2023-02-28T11:42:46;24.75;21.25;14.00
73687;PMS7003;62257;48.376;-4.378;2023-02-28T11:45:36;14.00;14.00;11.75
73687;PMS7003;62257;48.376;-4.378;2023-02-28T11:53:11;20.25;18.50;13.00
73687;PMS7003;62257;48.376;-4.378;2023-02-28T11:55:39;12.25;11.50;7.25
73687;PMS7003;62257;48.376;-4.378;2023-02-28T12:08:42;21.00;17.67;13.67
73687;PMS7003;62257;48.376;-4.378;2023-02-28T12:11:11;19.00;14.50;12.50
73687;PMS7003;62257;48.376;-4.378;2023-02-28T12:13:45;18.00;15.00;13.50
73687;PMS7003;62257;48.376;-4.378;2023-02-28T12:26:31;2.67;1.67;1.33
73687;PMS7003;62257;48.376;-4.378;2023-02-28T12:29:04;5.00;5.00;3.00
73687;PMS7003;62257;48.376;-4.378;2023-02-28T12:31:35;5.25;3.25;3.00
73687;PMS7003;62257;48.376;-4.378;2023-02-28T12:34:22;7.25;4.00;3.00
73687;PMS7003;62257;48.376;-4.378;2023-02-28T12:36:50;7.50;5.25;4.00
73687;PMS7003;62257;48.376;-4.378;2023-02-28T12:39:26;4.00;3.25;3.00
73687;PMS7003;62257;48.376;-4.378;2023-02-28T12:44:20;7.67;7.00;6.00
73687;PMS7003;62257;48.376;-4.378;2023-02-28T12:46:51;8.50;8.00;6.75
73687;PMS7003;62257;48.376;-4.378;2023-02-28T12:49:31;15.00;14.00;11.50
73687;PMS7003;62257;48.376;-4.378;2023-02-28T12:51:59;19.75;13.00;9.00
73687;PMS7003;62257;48.376;-4.378;2023-02-28T12:54:28;22.50;18.00;15.00
73687;PMS7003;62257;48.376;-4.378;2023-02-28T13:09:52;0.25;0.25;0.25
73687;PMS7003;62257;48.376;-4.378;2023-02-28T13:12:18;2.00;2.00;2.00
73687;PMS7003;62257;48.376;-4.378;2023-02-28T13:14:45;2.50;2.00;2.00
73687;PMS7003;62257;48.376;-4.378;2023-02-28T13:17:11;3.50;3.00;3.00
73687;PMS7003;62257;48.376;-4.378;2023-02-28T13:19:38;1.75;1.75;1.50
73687;PMS7003;62257;48.376;-4.378;2023-02-28T13:22:05;7.00;7.00;4.25
73687;PMS7003;62257;48.376;-4.378;2023-02-28T13:24:48;4.75;4.75;3.25
73687;PMS7003;62257;48.376;-4.378;2023-02-28T13:29:40;7.67;5.67;5.33
73687;PMS7003;62257;48.376;-4.378;2023-02-28T13:34:36;8.00;8.00;7.00
73687;PMS7003;62257;48.376;-4.378;2023-02-28T13:47:27;5.00;5.00;4.25
73687;PMS7003;62257;48.376;-4.378;2023-02-28T13:49:53;7.00;7.00;5.00
73687;PMS7003;62257;48.376;-4.378;2023-02-28T13:52:20;5.25;5.25;4.00
73687;PMS7003;62257;48.376;-4.378;2023-02-28T13:54:54;3.75;3.75;3.25
73687;PMS7003;62257;48.376;-4.378;2023-02-28T13:57:33;7.50;4.00;3.00
73687;PMS7003;62257;48.376;-4.378;2023-02-28T14:07:42;8.50;7.00;5.25
73687;PMS7003;62257;48.376;-4.378;2023-02-28T14:10:16;3.25;3.25;2.75
73687;PMS7003;62257;48.376;-4.378;2023-02-28T14:20:43;2.00;2.00;1.25
73687;PMS7003;62257;48.376;-4.378;2023-02-28T14:25:39;2.00;2.00;2.00
73687;PMS7003;62257;48.376;-4.378;2023-02-28T14:28:09;4.75;3.00;2.50
73687;PMS7003;62257;48.376;-4.378;2023-02-28T14:30:40;7.00;5.25;4.00
73687;PMS7003;62257;48.376;-4.378;2023-02-28T14:33:27;9.00;6.75;5.75
73687;PMS7003;62257;48.376;-4.378;2023-02-28T14:38:29;2.25;2.25;1.50
73687;PMS7003;62257;48.376;-4.378;2023-02-28T14:40:56;6.00;4.00;3.00
73687;PMS7003;62257;48.376;-4.378;2023-02-28T14:43:25;8.25;5.25;4.50
73687;PMS7003;62257;48.376;-4.378;2023-02-28T14:45:51;5.00;5.00;4.00
73687;PMS7003;62257;48.376;-4.378;2023-02-28T14:48:18;9.50;9.50;8.00
73687;PMS7003;62257;48.376;-4.378;2023-02-28T14:50:48;3.00;3.00;2.00
73687;PMS7003;62257;48.376;-4.378;2023-02-28T14:53:15;2.00;2.00;2.00
73687;PMS7003;62257;48.376;-4.378;2023-02-28T14:55:44;5.00;3.00;2.50
73687;PMS7003;62257;48.376;-4.378;2023-02-28T15:01:04;7.00;4.50;4.00
73687;PMS7003;62257;48.376;-4.378;2023-02-28T15:05:55;9.00;7.00;6.00
73687;PMS7003;62257;48.376;-4.378;2023-02-28T15:08:22;7.00;4.25;3.75
73687;PMS7003;62257;48.376;-4.378;2023-02-28T15:11:00;7.25;7.25;7.00
73687;PMS7003;62257;48.376;-4.378;2023-02-28T15:13:30;8.50;6.25;4.50
73687;PMS7003;62257;48.376;-4.378;2023-02-28T15:15:59;9.25;9.00;6.50
73687;PMS7003;62257;48.376;-4.378;2023-02-28T15:20:54;7.75;7.25;4.00
73687;PMS7003;62257;48.376;-4.378;2023-02-28T15:23:20;6.00;6.00;6.00
73687;PMS7003;62257;48.376;-4.378;2023-02-28T15:25:46;6.00;4.00;3.00
73687;PMS7003;62257;48.376;-4.378;2023-02-28T15:28:16;6.00;4.00;4.00
73687;PMS7003;62257;48.376;-4.378;2023-02-28T15:30:54;11.25;8.75;7.00
73687;PMS7003;62257;48.376;-4.378;2023-02-28T15:33:21;7.25;6.00;5.50
73687;PMS7003;62257;48.376;-4.378;2023-02-28T15:35:46;7.25;7.25;5.00
73687;PMS7003;62257;48.376;-4.378;2023-02-28T15:38:26;6.00;4.00;3.25
73687;PMS7003;62257;48.376;-4.378;2023-02-28T15:40:52;2.00;2.00;1.75
73687;PMS7003;62257;48.376;-4.378;2023-02-28T15:43:30;7.25;2.75;2.25
73687;PMS7003;62257;48.376;-4.378;2023-02-28T15:46:05;1.25;1.25;1.25
73687;PMS7003;62257;48.376;-4.378;2023-02-28T15:48:33;3.25;1.50;1.00
73687;PMS7003;62257;48.376;-4.378;2023-02-28T15:51:02;2.00;2.00;2.00
73687;PMS7003;62257;48.376;-4.378;2023-02-28T15:53:36;2.00;2.00;1.00
73687;PMS7003;62257;48.376;-4.378;2023-02-28T15:56:03;4.00;1.00;1.00
73687;PMS7003;62257;48.376;-4.378;2023-02-28T15:58:29;3.50;2.00;1.25
73687;PMS7003;62257;48.376;-4.378;2023-02-28T16:01:03;10.75;8.00;6.00
73687;PMS7003;62257;48.376;-4.378;2023-02-28T16:03:35;2.50;2.00;1.75
73687;PMS7003;62257;48.376;-4.378;2023-02-28T16:08:46;1.25;1.25;1.00
73687;PMS7003;62257;48.376;-4.378;2023-02-28T16:11:13;1.00;1.00;1.00
73687;PMS7003;62257;48.376;-4.378;2023-02-28T16:13:39;0.00;0.00;0.00
73687;PMS7003;62257;48.376;-4.378;2023-02-28T16:16:04;2.00;0.00;0.00